Blythe, CA

5:50 PM PDT on October 24, 2014 (GMT -0700)
farmerman92225 | Change Station
CLOSE
Current Station
Personal Weather Station
Location: Blythe, CA
Elevation: 259 ft
Nearby Weather Stations

Elev 259 ft 33.62 °N, 114.66 °W | Updated 35 seconds ago

Clear
Clear
87.6 °F
Feels Like 87 °F
N
0.0
Wind Variable Wind from SE
Gusts 0.0 mph

Today
High -- | Low -- °F
--% Chance of Precip.
Yesterday
High -- | Low -- °F
Precip. -- in
6:50 AM 5:54 PM
New Moon, 1% visible
Pressure 29.87 in
Visibility 10.0 miles
Clouds Clear
Heat Index 87 °F
Dew Point 60 °F
Humidity 39%
Rainfall 0.00 in
Snow Depth Not available.
UV 1 out of 12
Pollen 6.10 out of 12
Ozone Good
Flu Activity Sporadic
METAR KBLH 242352Z AUTO 17006KT 10SM CLR 34/07 A2988 RMK AO2 SLP113 T03440072 10350 20283 56016

More Conditions Fewer Conditions

Pressure 29.87 in
Visibility 10.0 miles
Clouds Clear
Heat Index 87 °F
Dew Point 60 °F
Humidity 39%
Rainfall 0.00 in
Snow Depth Not available.
UV 1 out of 12
Pollen 6.10 out of 12
Ozone Good
Flu Activity Sporadic
METAR KBLH 242352Z AUTO 17006KT 10SM CLR 34/07 A2988 RMK AO2 SLP113 T03440072 10350 20283 56016

More Conditions Fewer Conditions

10-Day Weather Forecast

Almanac

Astronomy

Oct. 24, 2014 Rise Set
Actual Time 6:50 AM PDT 5:54 PM PDT
Civil Twilight 6:25 AM PDT 6:19 PM PDT
Nautical Twilight 5:56 AM PDT 6:48 PM PDT
Astronomical Twilight 5:27 AM PDT 7:17 PM PDT
Moon 7:32 AM PDT (10/24) 6:39 PM PDT (10/24)
Length of Visible Light 11h 54m
Length of Day
11h 03m
Tomorrow will be 1m 54s shorter.
New Moon, 1% of the Moon is Illuminated
Today
New Moon
Oct 30
First Quarter
Nov 6
Full
Nov 14
Last Quarter
Nov 22
New

Today's Extremes

State Highs State Lows

Community

WunderPhotos

Upload Photos

1,764,735 photos uploaded!

WunderBlogs® & News

Nearby

Air Quality

  Air Quality AQ Index Pollutant
Yesterday Good
OZONE
Yesterday Good
PM10
Current Good
OZONE
Saturday Good
PM10
Saturday Good
OZONE
Saturday Good
CO
Saturday Good
NO2

Snow Depth

Station Depth Elevation
Leavitt Meadows 0 in 7200 ft
Summit Meadow 0 in 9122 ft
Echo Peak 0 in 7800 ft
Ward Creek #3 12 in 6750 ft
Adin Mountain 0 in 6200 ft

Earthquake Activity

City Distance Mag. Time & Date
Maneadero, Mexico 147 miles 2.5 7:44 AM PDT
2014-10-24
Delta, Mexico 86 miles 2.5 8:53 PM PDT
2014-10-21
Minimum magnitude displayed is 2.5.

Coastal Water Temperatures

Place Temperature
No Stations Reporting

Nearby Weather Stations